createdAt,value
2023-02-28T04:09:48.937Z,1012.99
2023-02-28T04:10:31.182Z,1012.98
2023-02-28T04:11:11.714Z,1013
2023-02-28T04:11:52.240Z,1013
2023-02-28T04:14:06.785Z,1013
2023-02-28T04:14:47.351Z,1012.97
2023-02-28T04:15:27.902Z,1012.99
2023-02-28T04:16:08.484Z,1012.99
2023-02-28T04:16:48.954Z,1012.99
2023-02-28T04:17:29.481Z,1012.98
2023-02-28T04:18:09.992Z,1012.99
2023-02-28T04:18:50.526Z,1013
2023-02-28T04:19:31.049Z,1012.99
2023-02-28T04:20:11.574Z,1012.99
2023-02-28T04:20:52.089Z,1013.02
2023-02-28T04:21:32.961Z,1013.02
2023-02-28T04:22:13.223Z,1013.01
2023-02-28T04:22:53.745Z,1013
2023-02-28T04:23:34.297Z,1013.02
2023-02-28T04:24:14.852Z,1013.02
2023-02-28T04:24:55.413Z,1013.04
2023-02-28T04:25:35.924Z,1013.05
2023-02-28T04:26:16.458Z,1013.04
2023-02-28T04:26:56.974Z,1013.05
2023-02-28T04:27:37.501Z,1013.06
2023-02-28T04:28:18.042Z,1013.04
2023-02-28T04:28:58.578Z,1013.04
2023-02-28T04:29:39.072Z,1013
2023-02-28T04:30:19.592Z,1013.02
2023-02-28T04:31:00.140Z,1012.97
2023-02-28T04:31:41.422Z,1012.99
2023-02-28T04:32:22.010Z,1012.96
2023-02-28T04:33:02.405Z,1012.96
2023-02-28T04:33:42.922Z,1012.96
2023-02-28T04:34:23.438Z,1012.98
2023-02-28T04:35:03.970Z,1012.98
2023-02-28T04:35:44.528Z,1013.01
2023-02-28T04:36:25.115Z,1012.99
2023-02-28T04:37:13.109Z,1012.99
2023-02-28T04:37:46.096Z,1012.98
2023-02-28T04:38:26.622Z,1012.99
2023-02-28T04:40:40.452Z,1012.97
2023-02-28T04:41:20.935Z,1012.95
2023-02-28T04:42:01.459Z,1012.98
2023-02-28T04:42:41.988Z,1013.02
2023-02-28T04:43:22.491Z,1013.01
2023-02-28T04:44:03.003Z,1013.03
2023-02-28T04:44:43.552Z,1013.01
2023-02-28T04:45:24.080Z,1012.97
2023-02-28T04:46:04.625Z,1012.97
2023-02-28T04:46:45.130Z,1012.94
2023-02-28T04:47:25.652Z,1013
2023-02-28T04:48:06.208Z,1012.96
2023-02-28T04:48:46.801Z,1012.99
2023-02-28T04:49:27.329Z,1013
2023-02-28T04:50:07.840Z,1012.97
2023-02-28T04:50:48.387Z,1012.92
2023-02-28T04:51:29.166Z,1012.94
2023-02-28T04:52:09.427Z,1012.93
2023-02-28T04:52:49.979Z,1012.96
2023-02-28T04:53:30.502Z,1012.96
2023-02-28T04:54:11.038Z,1012.97
2023-02-28T04:54:51.584Z,1012.96
2023-02-28T04:55:32.063Z,1012.95
2023-02-28T04:57:45.142Z,1012.98
2023-02-28T04:58:25.647Z,1012.97
2023-02-28T04:59:06.165Z,1013.07
2023-02-28T04:59:47.369Z,1012.99
2023-02-28T05:00:27.883Z,1013.01
2023-02-28T05:01:10.003Z,1013.04
2023-02-28T05:01:50.521Z,1013.03
2023-02-28T05:02:31.086Z,1012.98
2023-02-28T05:03:11.551Z,1013
2023-02-28T05:03:52.085Z,1013.05
2023-02-28T05:04:32.647Z,1013.03
2023-02-28T05:05:13.127Z,1013.03
2023-02-28T05:05:53.652Z,1013.01
2023-02-28T05:06:34.182Z,1013.03
2023-02-28T05:07:14.721Z,1013.05
2023-02-28T05:07:55.282Z,1013.05
2023-02-28T05:08:35.824Z,1013.07
2023-02-28T05:09:16.328Z,1013.1
2023-02-28T05:09:56.879Z,1013.05
2023-02-28T05:10:37.412Z,1013.11
2023-02-28T05:11:17.935Z,1013.03
2023-02-28T05:13:31.006Z,1013.08
2023-02-28T05:14:11.533Z,1013.07
2023-02-28T05:14:52.056Z,1013.08
2023-02-28T05:15:34.659Z,1013.08
2023-02-28T05:16:13.192Z,1013.12
2023-02-28T05:16:53.640Z,1013.07
2023-02-28T05:17:34.177Z,1013.15
2023-02-28T05:18:14.703Z,1013.08
2023-02-28T05:18:55.268Z,1013.14
2023-02-28T05:19:35.741Z,1013.12
2023-02-28T05:20:16.542Z,1013.13
2023-02-28T05:20:56.796Z,1013.11
2023-02-28T05:21:37.359Z,1013.09
2023-02-28T05:23:35.256Z,1013.09
2023-02-28T05:24:15.766Z,1013.14
2023-02-28T05:24:56.330Z,1013.1
2023-02-28T05:25:36.853Z,1013.13
2023-02-28T05:26:17.360Z,1013.08
2023-02-28T05:26:57.900Z,1013.15
2023-02-28T05:27:38.414Z,1013.15
2023-02-28T05:28:18.948Z,1013.11
2023-02-28T05:28:59.526Z,1013.11
2023-02-28T05:29:40.018Z,1013.16
2023-02-28T05:30:20.523Z,1013.15
2023-02-28T05:31:01.053Z,1013.17
2023-02-28T05:31:42.341Z,1013.18
2023-02-28T05:32:22.897Z,1013.16
2023-02-28T05:33:03.338Z,1013.18
2023-02-28T05:33:43.828Z,1013.17
2023-02-28T05:34:24.369Z,1013.16
2023-02-28T05:35:04.886Z,1013.17
2023-02-28T05:35:45.445Z,1013.13
2023-02-28T05:36:25.916Z,1013.16
2023-02-28T05:37:06.435Z,1013.18
2023-02-28T05:39:19.484Z,1013.2
2023-02-28T05:40:00.010Z,1013.17
2023-02-28T05:40:40.576Z,1013.19
2023-02-28T05:41:21.140Z,1013.16
2023-02-28T05:42:01.609Z,1013.13
2023-02-28T05:42:42.141Z,1013.16
2023-02-28T05:43:22.644Z,1013.18
2023-02-28T05:44:03.198Z,1013.16
2023-02-28T05:44:43.685Z,1013.14
2023-02-28T05:45:24.210Z,1013.2
2023-02-28T05:46:04.837Z,1013.17
2023-02-28T05:46:45.269Z,1013.16
2023-02-28T05:47:25.788Z,1013.19
2023-02-28T05:48:06.305Z,1013.19
2023-02-28T05:48:46.846Z,1013.2
2023-02-28T05:49:27.340Z,1013.25
2023-02-28T05:50:07.860Z,1013.2
2023-02-28T05:50:48.391Z,1013.21
2023-02-28T05:51:29.168Z,1013.24
2023-02-28T05:52:09.413Z,1013.2
2023-02-28T05:52:49.941Z,1013.24
2023-02-28T05:53:30.475Z,1013.23
2023-02-28T05:54:12.925Z,1013.25
2023-02-28T05:54:51.511Z,1013.18
2023-02-28T05:57:10.166Z,1013.21
2023-02-28T05:57:47.213Z,1013.21
2023-02-28T05:58:29.467Z,1013.19
2023-02-28T05:59:14.393Z,1013.18
2023-02-28T06:02:11.006Z,1013.17
2023-02-28T06:02:51.500Z,1013.16
2023-02-28T06:03:32.041Z,1013.16
2023-02-28T06:04:22.447Z,1013.11
2023-02-28T06:04:53.046Z,1013.17
2023-02-28T06:05:33.565Z,1013.08
2023-02-28T06:06:14.115Z,1013.07
2023-02-28T06:06:54.622Z,1013.14
2023-02-28T06:07:35.138Z,1013.13
2023-02-28T06:08:15.649Z,1013.12
2023-02-28T06:08:56.155Z,1013.11
2023-02-28T06:09:36.672Z,1013.14
2023-02-28T06:10:17.216Z,1013.16
2023-02-28T06:10:57.732Z,1013.14
2023-02-28T06:11:39.873Z,1013.2
2023-02-28T06:12:18.750Z,1013.17
2023-02-28T06:12:59.304Z,1013.15
2023-02-28T06:13:39.837Z,1013.17
2023-02-28T06:14:20.383Z,1013.15
2023-02-28T06:15:01.485Z,1013.17
2023-02-28T06:15:42.004Z,1013.17
2023-02-28T06:16:22.606Z,1013.19
2023-02-28T06:17:03.286Z,1013.24
2023-02-28T06:17:43.654Z,1013.25
2023-02-28T06:18:24.169Z,1013.21
2023-02-28T06:19:04.716Z,1013.27
2023-02-28T06:21:17.797Z,1013.23
2023-02-28T06:21:58.334Z,1013.25
2023-02-28T06:22:38.854Z,1013.25
2023-02-28T06:23:19.410Z,1013.26
2023-02-28T06:25:32.919Z,1013.27
2023-02-28T06:26:13.428Z,1013.25
2023-02-28T06:26:53.970Z,1013.26
2023-02-28T06:27:34.482Z,1013.25
2023-02-28T06:28:14.999Z,1013.29
2023-02-28T06:28:55.488Z,1013.33
2023-02-28T06:29:36.026Z,1013.3
2023-02-28T06:30:16.534Z,1013.31
2023-02-28T06:30:57.084Z,1013.29
2023-02-28T06:31:37.658Z,1013.3
2023-02-28T06:32:18.174Z,1013.33
2023-02-28T06:32:58.643Z,1013.4
2023-02-28T06:33:39.196Z,1013.3
2023-02-28T06:34:19.729Z,1013.29
2023-02-28T06:35:00.238Z,1013.29
2023-02-28T06:35:40.800Z,1013.27
2023-02-28T06:36:21.304Z,1013.27
2023-02-28T06:37:01.854Z,1013.32
2023-02-28T06:37:42.362Z,1013.34
2023-02-28T06:38:22.885Z,1013.39
2023-02-28T06:39:03.394Z,1013.34
2023-02-28T06:39:43.928Z,1013.36
2023-02-28T06:40:24.435Z,1013.35
2023-02-28T06:41:04.956Z,1013.38
2023-02-28T06:41:54.506Z,1013.38
2023-02-28T06:42:26.011Z,1013.35
2023-02-28T06:43:06.526Z,1013.38
2023-02-28T06:43:47.058Z,1013.39
2023-02-28T06:44:27.661Z,1013.29
2023-02-28T06:45:08.206Z,1013.38
2023-02-28T06:45:48.700Z,1013.33
2023-02-28T06:46:29.263Z,1013.46
2023-02-28T06:47:09.797Z,1013.39
2023-02-28T06:47:50.332Z,1013.43
2023-02-28T06:48:31.456Z,1013.45
2023-02-28T06:49:12.714Z,1013.44
2023-02-28T06:49:53.228Z,1013.48
2023-02-28T06:50:33.752Z,1013.47
2023-02-28T06:51:14.268Z,1013.54
2023-02-28T06:51:54.814Z,1013.54
2023-02-28T06:52:35.343Z,1013.51
2023-02-28T06:53:15.896Z,1013.57
2023-02-28T06:53:56.440Z,1013.53
2023-02-28T06:54:36.952Z,1013.58
2023-02-28T06:55:17.470Z,1013.56
2023-02-28T06:55:57.990Z,1013.57
2023-02-28T06:56:38.521Z,1013.6
2023-02-28T06:57:19.056Z,1013.57
2023-02-28T06:57:59.573Z,1013.57
2023-02-28T06:58:40.100Z,1013.65
2023-02-28T06:59:20.635Z,1013.62
2023-02-28T07:01:18.697Z,1013.7
2023-02-28T07:01:59.199Z,1013.67
2023-02-28T07:02:39.654Z,1013.69
2023-02-28T07:03:20.155Z,1013.69
2023-02-28T07:05:34.712Z,1013.69
2023-02-28T07:06:15.251Z,1013.7
2023-02-28T07:06:55.739Z,1013.73
2023-02-28T07:07:36.253Z,1013.66
2023-02-28T07:08:16.785Z,1013.66
2023-02-28T07:08:57.265Z,1013.74
2023-02-28T07:09:38.259Z,1013.77
2023-02-28T07:10:20.335Z,1013.73
2023-02-28T07:10:59.325Z,1013.75
2023-02-28T07:11:39.879Z,1013.78
2023-02-28T07:12:20.417Z,1013.76
2023-02-28T07:13:00.904Z,1013.72
2023-02-28T07:13:41.412Z,1013.78
2023-02-28T07:14:21.947Z,1013.8
2023-02-28T07:15:02.500Z,1013.75
2023-02-28T07:15:44.220Z,1013.73
2023-02-28T07:16:23.600Z,1013.73
2023-02-28T07:17:04.078Z,1013.83
2023-02-28T07:17:44.621Z,1013.76
2023-02-28T07:18:25.889Z,1013.8
2023-02-28T07:19:06.416Z,1013.74
2023-02-28T07:19:46.930Z,1013.78
2023-02-28T07:20:27.474Z,1013.82
2023-02-28T07:21:07.987Z,1013.8
2023-02-28T07:21:48.543Z,1013.81
2023-02-28T07:22:29.097Z,1013.82
2023-02-28T07:23:09.619Z,1013.8
2023-02-28T07:23:50.171Z,1013.79
2023-02-28T07:24:30.678Z,1013.82
2023-02-28T07:25:11.216Z,1013.8
2023-02-28T07:25:51.746Z,1013.83
2023-02-28T07:26:32.284Z,1013.87
2023-02-28T07:27:12.806Z,1013.89
2023-02-28T07:27:53.378Z,1013.85
2023-02-28T07:28:33.910Z,1013.87
2023-02-28T07:29:14.423Z,1013.88
2023-02-28T07:29:54.938Z,1013.93
2023-02-28T07:30:36.312Z,1013.86
2023-02-28T07:31:16.895Z,1013.85
2023-02-28T07:31:58.179Z,1013.94
2023-02-28T07:32:39.393Z,1013.87
2023-02-28T07:33:19.947Z,1013.94
2023-02-28T07:34:00.450Z,1013.91
2023-02-28T07:34:40.991Z,1013.89
2023-02-28T07:35:21.540Z,1013.91
2023-02-28T07:36:02.065Z,1013.89
2023-02-28T07:36:42.585Z,1013.86
2023-02-28T07:37:23.094Z,1013.93
2023-02-28T07:38:03.611Z,1013.96
2023-02-28T07:38:45.223Z,1013.93
2023-02-28T07:40:42.075Z,1013.91
2023-02-28T07:41:23.572Z,1013.92
2023-02-28T07:42:04.109Z,1013.95
2023-02-28T07:42:44.621Z,1013.93
2023-02-28T07:43:25.260Z,1013.92
2023-02-28T07:45:38.349Z,1013.92
2023-02-28T07:46:18.901Z,1013.93
2023-02-28T07:46:59.421Z,1013.94
2023-02-28T07:47:39.946Z,1013.95
2023-02-28T07:48:20.464Z,1013.97
2023-02-28T07:49:00.995Z,1013.94
2023-02-28T07:49:41.502Z,1014
2023-02-28T07:50:22.025Z,1014.01
2023-02-28T07:51:02.569Z,1013.97
2023-02-28T07:51:43.108Z,1014.01
2023-02-28T07:52:23.655Z,1013.99
2023-02-28T07:53:04.188Z,1013.97
2023-02-28T07:53:44.709Z,1014.04
2023-02-28T07:54:25.227Z,1014.09
2023-02-28T07:55:05.784Z,1014.02
2023-02-28T07:55:46.303Z,1014.09
2023-02-28T07:56:26.975Z,1014.04
2023-02-28T07:57:07.353Z,1014.08
2023-02-28T07:57:48.805Z,1014.02
2023-02-28T07:58:29.332Z,1014.1
2023-02-28T07:59:09.847Z,1014.01
2023-02-28T07:59:50.376Z,1014.03
2023-02-28T08:00:30.960Z,1014.05
2023-02-28T08:01:11.486Z,1014.08
2023-02-28T08:03:24.559Z,1014.07
2023-02-28T08:04:05.030Z,1014.06
2023-02-28T08:04:45.602Z,1014.03
2023-02-28T08:05:26.059Z,1013.97
2023-02-28T08:06:06.579Z,1014.03
2023-02-28T08:06:47.132Z,1014.09
2023-02-28T08:07:27.777Z,1014.09
2023-02-28T08:08:08.333Z,1014.12
2023-02-28T08:08:49.497Z,1014.05
2023-02-28T08:09:30.025Z,1014.03
2023-02-28T08:10:10.577Z,1014.06
2023-02-28T08:10:51.131Z,1014.06
2023-02-28T08:11:31.834Z,1013.99
2023-02-28T08:12:12.181Z,1014.11
2023-02-28T08:12:52.722Z,1014.04
2023-02-28T08:13:33.248Z,1014.12
2023-02-28T08:14:13.777Z,1014.12
2023-02-28T08:14:54.280Z,1014.09
2023-02-28T08:15:35.760Z,1014.07
2023-02-28T08:16:16.508Z,1014.1
2023-02-28T08:16:56.798Z,1014.07
2023-02-28T08:17:37.338Z,1014.09
2023-02-28T08:18:18.668Z,1014.12
2023-02-28T08:18:59.215Z,1014.09
2023-02-28T08:19:39.737Z,1014.11
2023-02-28T08:20:20.470Z,1014.14
2023-02-28T08:21:00.836Z,1014.13
2023-02-28T08:21:41.388Z,1014.11
2023-02-28T08:22:21.921Z,1014.13
2023-02-28T08:23:02.422Z,1014.16
2023-02-28T08:23:42.941Z,1014.14
2023-02-28T08:24:23.487Z,1014.12
2023-02-28T08:25:04.036Z,1014.16
2023-02-28T08:25:44.575Z,1014.15
2023-02-28T08:26:25.092Z,1014.16
2023-02-28T08:27:05.623Z,1014.18
2023-02-28T08:27:46.162Z,1014.14
2023-02-28T08:28:27.481Z,1014.19
2023-02-28T08:29:07.220Z,1014.17
2023-02-28T08:29:47.722Z,1014.22
2023-02-28T08:30:28.242Z,1014.25
2023-02-28T08:32:41.459Z,1014.21
2023-02-28T08:33:21.813Z,1014.25
2023-02-28T08:34:02.387Z,1014.18
2023-02-28T08:34:42.899Z,1014.16
2023-02-28T08:35:23.449Z,1014.19
2023-02-28T08:36:04.043Z,1014.25
2023-02-28T08:36:44.457Z,1014.2
2023-02-28T08:37:24.991Z,1014.23
2023-02-28T08:38:05.500Z,1014.19
2023-02-28T08:38:46.018Z,1014.2
2023-02-28T08:39:26.556Z,1014.2
2023-02-28T08:40:07.111Z,1014.21
2023-02-28T08:40:47.673Z,1014.27
2023-02-28T08:41:28.593Z,1014.26
2023-02-28T08:42:08.775Z,1014.27
2023-02-28T08:42:49.317Z,1014.31
2023-02-28T08:43:29.866Z,1014.3
2023-02-28T08:44:10.425Z,1014.3
2023-02-28T08:46:09.481Z,1014.33
2023-02-28T08:46:50.609Z,1014.32
2023-02-28T08:47:33.585Z,1014.38
2023-02-28T08:48:16.009Z,1014.42
2023-02-28T08:50:31.010Z,1014.27
2023-02-28T08:51:11.532Z,1014.38
2023-02-28T08:51:52.032Z,1014.5
2023-02-28T08:52:32.531Z,1014.4
2023-02-28T08:53:13.065Z,1014.35
2023-02-28T08:53:53.594Z,1014.37
2023-02-28T08:54:34.212Z,1014.36
2023-02-28T08:55:14.701Z,1014.43
2023-02-28T08:55:55.218Z,1014.39
2023-02-28T08:56:35.725Z,1014.34
2023-02-28T08:57:16.245Z,1014.34
2023-02-28T08:57:56.781Z,1014.36
2023-02-28T08:58:37.269Z,1014.28
2023-02-28T08:59:17.797Z,1014.31
2023-02-28T08:59:58.362Z,1014.34
2023-02-28T09:00:38.868Z,1014.36
2023-02-28T09:01:19.421Z,1014.4
2023-02-28T09:01:59.893Z,1014.22
2023-02-28T09:02:40.445Z,1014.25
2023-02-28T09:03:22.632Z,1014.26
2023-02-28T09:04:01.503Z,1014.34
2023-02-28T09:04:42.002Z,1014.35
2023-02-28T09:05:22.550Z,1014.32
2023-02-28T09:06:03.107Z,1014.34
2023-02-28T09:06:43.608Z,1014.28
2023-02-28T09:07:24.127Z,1014.31
2023-02-28T09:08:04.650Z,1014.33
2023-02-28T09:10:17.861Z,1014.33
2023-02-28T09:10:58.355Z,1014.25
2023-02-28T09:11:38.877Z,1014.35
2023-02-28T09:12:19.413Z,1014.35
2023-02-28T09:12:59.932Z,1014.36
2023-02-28T09:13:40.454Z,1014.31
2023-02-28T09:14:20.968Z,1014.37
2023-02-28T09:15:01.508Z,1014.28
2023-02-28T09:15:42.588Z,1014.34
2023-02-28T09:16:23.168Z,1014.3
2023-02-28T09:17:46.718Z,1014.22
2023-02-28T09:18:24.679Z,1014.23
2023-02-28T09:19:05.312Z,1014.25
2023-02-28T09:19:45.709Z,1014.3
2023-02-28T09:20:26.232Z,1014.33
2023-02-28T09:21:06.807Z,1014.33
2023-02-28T09:21:47.294Z,1014.36
2023-02-28T09:22:27.816Z,1014.28
2023-02-28T09:23:08.339Z,1014.32
2023-02-28T09:23:48.888Z,1014.31
2023-02-28T09:24:29.441Z,1014.33
2023-02-28T09:25:09.978Z,1014.35
2023-02-28T09:25:50.499Z,1014.31
2023-02-28T09:26:32.664Z,1014.36
2023-02-28T09:27:11.702Z,1014.4
2023-02-28T09:29:25.487Z,1014.36
2023-02-28T09:30:06.039Z,1014.35
2023-02-28T09:30:46.599Z,1014.39
2023-02-28T09:31:27.136Z,1014.43
2023-02-28T09:32:07.728Z,1014.36
2023-02-28T09:32:50.321Z,1014.33
2023-02-28T09:33:28.712Z,1014.3
2023-02-28T09:34:09.299Z,1014.26
2023-02-28T09:34:49.868Z,1014.28
2023-02-28T09:35:30.398Z,1014.29
2023-02-28T09:36:11.006Z,1014.31
2023-02-28T09:36:51.849Z,1014.35
2023-02-28T09:37:32.008Z,1014.27
2023-02-28T09:38:12.544Z,1014.3
2023-02-28T09:38:53.084Z,1014.3
2023-02-28T09:39:33.689Z,1014.3
2023-02-28T09:40:14.114Z,1014.3
2023-02-28T09:40:54.645Z,1014.29
2023-02-28T09:41:35.169Z,1014.35
2023-02-28T09:42:15.664Z,1014.31
2023-02-28T09:42:56.212Z,1014.3
2023-02-28T09:43:36.727Z,1014.31
2023-02-28T09:44:17.258Z,1014.31
2023-02-28T09:44:57.751Z,1014.37
2023-02-28T09:45:38.301Z,1014.31
2023-02-28T09:46:18.867Z,1014.28
2023-02-28T09:46:59.355Z,1014.24
2023-02-28T09:47:39.875Z,1014.28
2023-02-28T09:48:20.394Z,1014.34
2023-02-28T09:49:00.934Z,1014.25
2023-02-28T09:49:41.458Z,1014.25
2023-02-28T09:50:21.949Z,1014.24
2023-02-28T09:51:02.486Z,1014.2
2023-02-28T09:51:43.032Z,1014.21
2023-02-28T09:52:23.563Z,1014.21
2023-02-28T09:53:04.071Z,1014.25
2023-02-28T09:53:47.864Z,1014.16
2023-02-28T09:55:59.156Z,1014.27
2023-02-28T09:56:39.696Z,1014.19
2023-02-28T09:57:20.760Z,1014.18
2023-02-28T09:58:00.744Z,1014.23
2023-02-28T09:58:41.239Z,1014.23
2023-02-28T09:59:21.762Z,1014.24
2023-02-28T10:00:02.337Z,1014.17
2023-02-28T10:02:15.101Z,1014.36
2023-02-28T10:02:55.640Z,1014.32
2023-02-28T10:03:36.186Z,1014.42
2023-02-28T10:04:16.711Z,1014.32
2023-02-28T10:04:57.244Z,1014.38
2023-02-28T10:05:37.708Z,1014.37
2023-02-28T10:06:18.259Z,1014.39
2023-02-28T10:06:58.814Z,1014.24
2023-02-28T10:07:40.112Z,1014.3
2023-02-28T10:08:21.416Z,1014.31
2023-02-28T10:09:01.934Z,1014.25
2023-02-28T10:09:42.446Z,1014.3
2023-02-28T10:10:22.985Z,1014.35
2023-02-28T10:12:20.635Z,1014.25
2023-02-28T10:13:01.135Z,1014.29
2023-02-28T10:13:41.654Z,1014.31
2023-02-28T10:14:22.175Z,1014.31
2023-02-28T10:15:02.718Z,1014.48
2023-02-28T10:15:43.265Z,1014.45
2023-02-28T10:16:23.747Z,1014.37
2023-02-28T10:17:04.304Z,1014.42
2023-02-28T10:17:54.640Z,1014.33
2023-02-28T10:18:25.339Z,1014.37
2023-02-28T10:19:05.865Z,1014.43
2023-02-28T10:19:46.393Z,1014.46
2023-02-28T10:21:44.510Z,1014.46
2023-02-28T10:22:25.061Z,1014.44
2023-02-28T10:23:05.561Z,1014.49
2023-02-28T10:23:46.366Z,1014.47
2023-02-28T10:24:26.907Z,1014.49
2023-02-28T10:25:08.200Z,1014.54
2023-02-28T10:25:47.996Z,1014.51
2023-02-28T10:26:28.747Z,1014.56
2023-02-28T10:27:09.017Z,1014.56
2023-02-28T10:27:49.537Z,1014.59
2023-02-28T10:28:30.086Z,1014.53
2023-02-28T10:29:10.587Z,1014.59
2023-02-28T10:29:51.127Z,1014.51
2023-02-28T10:30:32.455Z,1014.41
2023-02-28T10:31:13.044Z,1014.52
2023-02-28T10:33:11.264Z,1014.44
2023-02-28T10:33:51.778Z,1014.49
2023-02-28T10:34:32.328Z,1014.47
2023-02-28T10:35:12.869Z,1014.51
2023-02-28T10:35:53.428Z,1014.56
2023-02-28T10:36:35.831Z,1014.45
2023-02-28T10:37:14.485Z,1014.42
2023-02-28T10:37:55.084Z,1014.45
2023-02-28T10:38:35.574Z,1014.45
2023-02-28T10:39:16.201Z,1014.5
2023-02-28T10:39:56.701Z,1014.47
2023-02-28T10:40:38.146Z,1014.44
2023-02-28T10:42:35.788Z,1014.39
2023-02-28T10:43:16.304Z,1014.38
2023-02-28T10:43:56.821Z,1014.38
2023-02-28T10:44:37.355Z,1014.35
2023-02-28T10:45:17.960Z,1014.4
2023-02-28T10:45:58.507Z,1014.43
2023-02-28T10:46:39.007Z,1014.47
2023-02-28T10:47:19.507Z,1014.48
2023-02-28T10:48:00.130Z,1014.51
2023-02-28T10:48:40.624Z,1014.4
2023-02-28T10:49:21.152Z,1014.44
2023-02-28T10:50:01.670Z,1014.46
2023-02-28T10:50:42.208Z,1014.46
2023-02-28T10:52:40.148Z,1014.41
2023-02-28T10:53:20.679Z,1014.36
2023-02-28T10:54:02.415Z,1014.38
2023-02-28T10:54:41.744Z,1014.4
2023-02-28T10:55:22.275Z,1014.4
2023-02-28T10:56:02.810Z,1014.43
2023-02-28T10:56:43.298Z,1014.39
2023-02-28T10:57:23.838Z,1014.42
2023-02-28T10:58:04.912Z,1014.46
2023-02-28T10:58:45.441Z,1014.45
2023-02-28T10:59:25.990Z,1014.53
2023-02-28T11:00:06.494Z,1014.51
2023-02-28T11:00:47.004Z,1014.52
2023-02-28T11:01:27.547Z,1014.49
2023-02-28T11:02:08.462Z,1014.53
2023-02-28T11:02:48.591Z,1014.48
2023-02-28T11:03:29.116Z,1014.53
2023-02-28T11:04:09.683Z,1014.46
2023-02-28T11:04:50.213Z,1014.5
2023-02-28T11:05:30.775Z,1014.46
2023-02-28T11:06:11.351Z,1014.5
2023-02-28T11:06:51.885Z,1014.51
2023-02-28T11:07:41.400Z,1014.5
2023-02-28T11:08:12.924Z,1014.45
2023-02-28T11:08:53.474Z,1014.38
2023-02-28T11:09:33.962Z,1014.46
2023-02-28T11:10:14.507Z,1014.52
2023-02-28T11:12:28.138Z,1014.59
2023-02-28T11:13:09.336Z,1014.46
2023-02-28T11:13:49.858Z,1014.6
2023-02-28T11:14:31.281Z,1014.58
2023-02-28T11:15:11.879Z,1014.57
2023-02-28T11:15:52.508Z,1014.5
2023-02-28T11:16:33.510Z,1014.51
2023-02-28T11:18:52.095Z,1014.52
2023-02-28T11:19:32.677Z,1014.41
2023-02-28T11:20:13.216Z,1014.5
2023-02-28T11:20:53.732Z,1014.47
2023-02-28T11:21:34.841Z,1014.48
2023-02-28T11:23:47.633Z,1014.37
2023-02-28T11:24:28.206Z,1014.36
2023-02-28T11:25:08.733Z,1014.33
2023-02-28T11:25:49.277Z,1014.37
2023-02-28T11:27:50.126Z,1014.31
2023-02-28T11:28:30.649Z,1014.27
2023-02-28T11:29:11.198Z,1014.34
2023-02-28T11:29:55.681Z,1014.34
2023-02-28T11:30:36.304Z,1014.34
2023-02-28T11:31:17.000Z,1014.38
2023-02-28T11:31:58.856Z,1014.33
2023-02-28T11:33:51.715Z,1014.27
2023-02-28T11:34:35.707Z,1014.34
2023-02-28T11:35:23.464Z,1014.33
2023-02-28T11:36:07.811Z,1014.32
2023-02-28T11:38:29.484Z,1014.17
2023-02-28T11:39:13.509Z,1014.23
2023-02-28T11:39:55.919Z,1014.26
2023-02-28T11:40:38.939Z,1014.35
2023-02-28T11:43:07.352Z,1014.3
2023-02-28T11:43:48.567Z,1014.31
2023-02-28T11:44:29.097Z,1014.3
2023-02-28T11:45:09.631Z,1014.34
2023-02-28T11:45:50.179Z,1014.29
2023-02-28T11:46:30.759Z,1014.33
2023-02-28T11:48:43.475Z,1014.12
2023-02-28T11:49:23.994Z,1014.11
2023-02-28T11:50:04.541Z,1014.15
2023-02-28T11:50:45.062Z,1014.11
2023-02-28T11:51:25.573Z,1014.08
2023-02-28T11:52:06.077Z,1014.11
2023-02-28T11:52:46.622Z,1014.13
2023-02-28T11:53:27.964Z,1014.14
2023-02-28T11:54:07.757Z,1014.11
2023-02-28T11:54:48.301Z,1014.13
2023-02-28T11:55:28.857Z,1014.08
2023-02-28T11:56:09.340Z,1014.09
2023-02-28T11:56:49.866Z,1014.09
2023-02-28T11:57:30.399Z,1014.03
2023-02-28T11:58:10.921Z,1014.06
2023-02-28T11:58:51.446Z,1014.14
2023-02-28T11:59:31.952Z,1014.15
2023-02-28T12:00:12.542Z,1014.12
2023-02-28T12:00:52.968Z,1014.1
2023-02-28T12:01:33.499Z,1014.1
2023-02-28T12:02:14.040Z,1014.11
2023-02-28T12:02:54.716Z,1014.13
2023-02-28T12:03:35.161Z,1014.2
2023-02-28T12:04:15.599Z,1014.27
2023-02-28T12:04:56.094Z,1014.22
2023-02-28T12:05:36.622Z,1014.21
2023-02-28T12:06:17.159Z,1014.21
2023-02-28T12:06:57.699Z,1014.25
2023-02-28T12:07:38.246Z,1014.16
2023-02-28T12:08:18.780Z,1014.07
2023-02-28T12:08:59.295Z,1014.16
2023-02-28T12:09:39.846Z,1014.14
2023-02-28T12:10:20.373Z,1014.1
2023-02-28T12:11:00.979Z,1014.06
2023-02-28T12:11:41.471Z,1013.99
2023-02-28T12:12:24.430Z,1013.96
2023-02-28T12:13:03.211Z,1014
2023-02-28T12:13:43.739Z,1014.01
2023-02-28T12:14:24.297Z,1014.06
2023-02-28T12:15:05.551Z,1014.03
2023-02-28T12:15:46.133Z,1014.15
2023-02-28T12:16:26.671Z,1014.15
2023-02-28T12:17:07.205Z,1014.12
2023-02-28T12:17:47.761Z,1014.07
2023-02-28T12:18:28.349Z,1014.16
2023-02-28T12:19:08.854Z,1014.1
2023-02-28T12:19:49.392Z,1014.16
2023-02-28T12:20:30.034Z,1014.13
2023-02-28T12:21:10.480Z,1014.01
2023-02-28T12:21:50.994Z,1014.02
2023-02-28T12:22:31.512Z,1014.04
2023-02-28T12:23:12.049Z,1014.02
2023-02-28T12:23:52.609Z,1014.07
2023-02-28T12:24:33.132Z,1014.06
2023-02-28T12:25:13.642Z,1014.1
2023-02-28T12:25:54.171Z,1014.07
2023-02-28T12:26:34.737Z,1014.08
2023-02-28T12:27:15.235Z,1014.17
2023-02-28T12:27:55.744Z,1014.29
2023-02-28T12:28:36.271Z,1014.21
2023-02-28T12:30:49.324Z,1014.27
2023-02-28T12:31:30.247Z,1014.19
2023-02-28T12:32:10.528Z,1014.25
2023-02-28T12:32:50.990Z,1014.23
2023-02-28T12:33:31.473Z,1014.13
2023-02-28T12:34:11.966Z,1014.18
2023-02-28T12:34:52.537Z,1014.34
2023-02-28T12:35:33.921Z,1014.35
2023-02-28T12:37:26.454Z,1014.16
2023-02-28T12:38:07.846Z,1014.06
2023-02-28T12:38:48.344Z,1014
2023-02-28T12:39:31.146Z,1013.97
2023-02-28T12:41:49.400Z,1013.97
2023-02-28T12:42:29.893Z,1013.95
2023-02-28T12:43:10.406Z,1013.99
2023-02-28T12:43:50.917Z,1013.98
2023-02-28T12:46:05.631Z,1013.86
2023-02-28T12:46:46.185Z,1013.82
2023-02-28T12:47:27.360Z,1013.81
2023-02-28T12:48:07.887Z,1013.89
2023-02-28T12:48:48.418Z,1013.84
2023-02-28T12:49:28.939Z,1013.74
2023-02-28T12:50:09.492Z,1013.82
2023-02-28T12:50:49.976Z,1013.92
2023-02-28T12:51:30.846Z,1013.88
2023-02-28T12:52:11.070Z,1013.94
2023-02-28T12:52:52.231Z,1013.89
2023-02-28T12:53:33.593Z,1014
2023-02-28T12:54:14.103Z,1014.08
2023-02-28T12:54:54.607Z,1014
2023-02-28T12:57:08.046Z,1013.9
2023-02-28T12:57:48.535Z,1013.86
2023-02-28T12:58:30.081Z,1013.82
2023-02-28T12:59:10.590Z,1013.94
2023-02-28T12:59:51.107Z,1013.82
2023-02-28T13:00:31.677Z,1013.81
2023-02-28T13:01:12.304Z,1013.79
2023-02-28T13:01:52.773Z,1013.84
2023-02-28T13:03:45.367Z,1013.8
2023-02-28T13:04:25.867Z,1013.74
2023-02-28T13:05:06.434Z,1013.77
2023-02-28T13:05:47.878Z,1013.99
2023-02-28T13:07:46.699Z,1013.91
2023-02-28T13:08:27.216Z,1013.84
2023-02-28T13:09:07.770Z,1013.83
2023-02-28T13:09:48.324Z,1013.94
2023-02-28T13:12:07.180Z,1013.77
2023-02-28T13:12:48.708Z,1013.72
2023-02-28T13:13:29.195Z,1013.8
2023-02-28T13:14:11.360Z,1013.96
2023-02-28T13:14:51.880Z,1013.96
2023-02-28T13:16:44.999Z,1013.74
2023-02-28T13:17:25.443Z,1013.64
2023-02-28T13:18:05.964Z,1013.7
2023-02-28T13:18:49.249Z,1013.79
2023-02-28T13:19:30.446Z,1013.9
2023-02-28T13:20:11.593Z,1013.9
2023-02-28T13:22:05.594Z,1013.93
2023-02-28T13:22:45.268Z,1013.86
2023-02-28T13:23:26.746Z,1013.83
2023-02-28T13:24:07.304Z,1013.89
2023-02-28T13:24:47.863Z,1013.85
2023-02-28T13:25:28.422Z,1013.8
2023-02-28T13:26:08.963Z,1013.82
2023-02-28T13:26:49.550Z,1013.86
2023-02-28T13:27:30.100Z,1013.74
2023-02-28T13:28:10.687Z,1013.75
2023-02-28T13:28:51.201Z,1013.8
2023-02-28T13:29:31.764Z,1013.81
2023-02-28T13:30:12.373Z,1013.8
2023-02-28T13:30:52.998Z,1013.78